createdAt,value
2018-02-11T00:00:49.758Z,975.85
2018-02-11T00:01:49.673Z,975.81
2018-02-11T00:02:49.585Z,975.79
2018-02-11T00:03:49.500Z,975.82
2018-02-11T00:04:49.412Z,975.81
2018-02-11T00:05:49.331Z,975.80
2018-02-11T00:06:49.241Z,975.82
2018-02-11T00:07:49.174Z,975.77
2018-02-11T00:08:49.074Z,975.80
2018-02-11T00:09:49.000Z,975.81
2018-02-11T00:10:48.899Z,975.77
2018-02-11T00:11:48.812Z,975.73
2018-02-11T00:12:48.729Z,975.74
2018-02-11T00:13:48.643Z,975.75
2018-02-11T00:14:48.555Z,975.74
2018-02-11T00:15:48.474Z,975.73
2018-02-11T00:16:48.385Z,975.69
2018-02-11T00:17:48.300Z,975.68
2018-02-11T00:18:48.213Z,975.67
2018-02-11T00:19:48.128Z,975.67
2018-02-11T00:20:48.042Z,975.65
2018-02-11T00:21:47.957Z,975.65
2018-02-11T00:22:47.871Z,975.63
2018-02-11T00:23:47.783Z,975.60
2018-02-11T00:24:47.699Z,975.61
2018-02-11T00:25:47.616Z,975.59
2018-02-11T00:26:47.527Z,975.57
2018-02-11T00:27:47.466Z,975.57
2018-02-11T00:28:47.356Z,975.52
2018-02-11T00:29:47.276Z,975.52
2018-02-11T00:30:47.183Z,975.52
2018-02-11T00:31:47.096Z,975.47
2018-02-11T00:32:47.014Z,975.49
2018-02-11T00:33:46.927Z,975.45
2018-02-11T00:34:46.839Z,975.44
2018-02-11T00:35:46.758Z,975.48
2018-02-11T00:36:46.671Z,975.45
2018-02-11T00:37:46.585Z,975.46
2018-02-11T00:38:46.499Z,975.40
2018-02-11T00:39:46.411Z,975.43
2018-02-11T00:40:46.326Z,975.44
2018-02-11T00:41:46.240Z,975.42
2018-02-11T00:42:46.167Z,975.43
2018-02-11T00:43:46.068Z,975.42
2018-02-11T00:44:45.982Z,975.41
2018-02-11T00:45:45.896Z,975.42
2018-02-11T00:46:45.812Z,975.39
2018-02-11T00:47:45.741Z,975.41
2018-02-11T00:48:45.642Z,975.37
2018-02-11T00:49:45.556Z,975.36
2018-02-11T00:50:45.469Z,975.40
2018-02-11T00:51:45.383Z,975.38
2018-02-11T00:52:45.296Z,975.36
2018-02-11T00:53:45.211Z,975.35
2018-02-11T00:54:45.124Z,975.37
2018-02-11T00:55:45.042Z,975.38
2018-02-11T00:56:44.957Z,975.37
2018-02-11T00:57:44.872Z,975.35
2018-02-11T00:58:44.781Z,975.34
2018-02-11T00:59:44.707Z,975.33
2018-02-11T01:00:44.612Z,975.32
2018-02-11T01:01:44.543Z,975.28
2018-02-11T01:02:44.441Z,975.25
2018-02-11T01:03:44.354Z,975.30
2018-02-11T01:04:44.269Z,975.23
2018-02-11T01:05:44.183Z,975.26
2018-02-11T01:06:44.101Z,975.26
2018-02-11T01:07:44.012Z,975.24
2018-02-11T01:08:43.925Z,975.28
2018-02-11T01:09:43.843Z,975.27
2018-02-11T01:10:43.754Z,975.27
2018-02-11T01:11:43.680Z,975.21
2018-02-11T01:12:43.582Z,975.22
2018-02-11T01:13:43.498Z,975.21
2018-02-11T01:14:43.408Z,975.19
2018-02-11T01:15:43.323Z,975.20
2018-02-11T01:16:43.239Z,975.16
2018-02-11T01:17:43.154Z,975.14
2018-02-11T01:18:43.071Z,975.17
2018-02-11T01:19:43.000Z,975.12
2018-02-11T01:20:42.893Z,975.16
2018-02-11T01:21:42.817Z,975.13
2018-02-11T01:22:42.720Z,975.10
2018-02-11T01:23:42.635Z,975.16
2018-02-11T01:24:42.580Z,975.11
2018-02-11T01:25:42.463Z,975.09
2018-02-11T01:26:42.379Z,975.09
2018-02-11T01:27:42.289Z,975.11
2018-02-11T01:28:42.207Z,975.06
2018-02-11T01:29:42.116Z,975.06
2018-02-11T01:30:42.030Z,975.06
2018-02-11T01:31:41.946Z,975.06
2018-02-11T01:32:41.859Z,975.04
2018-02-11T01:33:41.774Z,975.04
2018-02-11T01:34:41.688Z,975.04
2018-02-11T01:35:41.601Z,975.03
2018-02-11T01:36:41.514Z,975.00
2018-02-11T01:37:41.428Z,975.01
2018-02-11T01:38:41.341Z,974.97
2018-02-11T01:39:41.255Z,974.96
2018-02-11T01:40:41.168Z,974.96
2018-02-11T01:41:41.090Z,974.94
2018-02-11T01:42:40.995Z,974.90
2018-02-11T01:43:40.911Z,974.88
2018-02-11T01:44:40.823Z,974.89
2018-02-11T01:45:40.736Z,974.88
2018-02-11T01:46:40.652Z,974.88
2018-02-11T01:47:40.565Z,974.85
2018-02-11T01:48:40.483Z,974.88
2018-02-11T01:49:40.395Z,974.86
2018-02-11T01:50:40.304Z,974.86
2018-02-11T01:51:40.219Z,974.85
2018-02-11T01:52:40.136Z,974.82
2018-02-11T01:53:40.049Z,974.81
2018-02-11T01:54:39.963Z,974.75
2018-02-11T01:55:39.873Z,974.77
2018-02-11T01:56:39.790Z,974.77
2018-02-11T01:57:39.701Z,974.74
2018-02-11T01:58:39.615Z,974.73
2018-02-11T01:59:39.529Z,974.73
2018-02-11T02:00:39.443Z,974.70
2018-02-11T02:01:39.364Z,974.69
2018-02-11T02:02:39.269Z,974.69
2018-02-11T02:03:39.185Z,974.61
2018-02-11T02:04:39.115Z,974.60
2018-02-11T02:05:39.015Z,974.59
2018-02-11T02:06:38.928Z,974.60
2018-02-11T02:07:38.847Z,974.60
2018-02-11T02:08:38.754Z,974.56
2018-02-11T02:09:38.668Z,974.53
2018-02-11T02:10:38.581Z,974.51
2018-02-11T02:11:38.493Z,974.53
2018-02-11T02:12:38.409Z,974.50
2018-02-11T02:13:38.324Z,974.47
2018-02-11T02:14:38.246Z,974.44
2018-02-11T02:15:38.157Z,974.42
2018-02-11T02:16:38.063Z,974.37
2018-02-11T02:17:37.979Z,974.36
2018-02-11T02:18:37.891Z,974.36
2018-02-11T02:19:37.813Z,974.34
2018-02-11T02:20:37.720Z,974.32
2018-02-11T02:21:37.634Z,974.34
2018-02-11T02:22:37.544Z,974.32
2018-02-11T02:23:37.460Z,974.30
2018-02-11T02:24:37.376Z,974.29
2018-02-11T02:25:37.303Z,974.27
2018-02-11T02:26:37.212Z,974.25
2018-02-11T02:27:37.129Z,974.25
2018-02-11T02:28:37.029Z,974.23
2018-02-11T02:29:36.947Z,974.23
2018-02-11T02:30:36.856Z,974.23
2018-02-11T02:31:36.774Z,974.22
2018-02-11T02:32:36.687Z,974.18
2018-02-11T02:33:36.598Z,974.21
2018-02-11T02:34:36.514Z,974.16
2018-02-11T02:35:36.426Z,974.15
2018-02-11T02:36:36.356Z,974.12
2018-02-11T02:37:36.254Z,974.12
2018-02-11T02:38:36.173Z,974.10
2018-02-11T02:39:36.084Z,974.09
2018-02-11T02:40:35.996Z,974.03
2018-02-11T02:41:35.911Z,974.02
2018-02-11T02:42:35.825Z,974.01
2018-02-11T02:43:35.746Z,974.03
2018-02-11T02:44:35.652Z,973.99
2018-02-11T02:45:35.567Z,974.06
2018-02-11T02:46:36.770Z,974.03
2018-02-11T02:47:35.391Z,974.03
2018-02-11T02:48:35.305Z,973.96
2018-02-11T02:49:35.225Z,973.97
2018-02-11T02:50:35.136Z,973.96
2018-02-11T02:51:35.047Z,973.94
2018-02-11T02:52:34.962Z,973.96
2018-02-11T02:53:34.877Z,973.98
2018-02-11T02:54:34.791Z,973.92
2018-02-11T02:55:34.704Z,973.93
2018-02-11T02:56:34.622Z,973.93
2018-02-11T02:57:34.533Z,973.93
2018-02-11T02:58:34.459Z,973.94
2018-02-11T02:59:34.362Z,973.91
2018-02-11T03:00:34.278Z,973.84
2018-02-11T03:01:34.188Z,973.80
2018-02-11T03:02:34.110Z,973.80
2018-02-11T03:03:34.031Z,973.78
2018-02-11T03:04:33.929Z,973.78
2018-02-11T03:05:33.843Z,973.74
2018-02-11T03:06:33.754Z,973.72
2018-02-11T03:07:33.670Z,973.74
2018-02-11T03:08:33.598Z,973.73
2018-02-11T03:09:33.498Z,973.72
2018-02-11T03:10:33.410Z,973.72
2018-02-11T03:11:33.329Z,973.72
2018-02-11T03:12:33.245Z,973.69
2018-02-11T03:13:33.154Z,973.69
2018-02-11T03:14:33.065Z,973.69
2018-02-11T03:15:32.983Z,973.64
2018-02-11T03:16:33.032Z,973.64
2018-02-11T03:17:32.806Z,973.60
2018-02-11T03:18:32.740Z,973.57
2018-02-11T03:19:32.639Z,973.56
2018-02-11T03:20:32.549Z,973.54
2018-02-11T03:21:32.465Z,973.51
2018-02-11T03:22:32.377Z,973.48
2018-02-11T03:23:32.292Z,973.46
2018-02-11T03:24:32.204Z,973.50
2018-02-11T03:25:32.116Z,973.46
2018-02-11T03:26:32.030Z,973.44
2018-02-11T03:27:31.946Z,973.43
2018-02-11T03:28:31.859Z,973.44
2018-02-11T03:29:31.776Z,973.43
2018-02-11T03:30:31.689Z,973.40
2018-02-11T03:31:31.608Z,973.37
2018-02-11T03:32:31.514Z,973.38
2018-02-11T03:33:31.428Z,973.37
2018-02-11T03:34:31.343Z,973.36
2018-02-11T03:35:31.254Z,973.38
2018-02-11T03:36:31.168Z,973.36
2018-02-11T03:37:31.082Z,973.33
2018-02-11T03:38:30.995Z,973.28
2018-02-11T03:39:30.908Z,973.32
2018-02-11T03:40:30.826Z,973.30
2018-02-11T03:41:30.738Z,973.32
2018-02-11T03:42:30.658Z,973.28
2018-02-11T03:43:30.569Z,973.29
2018-02-11T03:44:30.479Z,973.24
2018-02-11T03:45:30.396Z,973.27
2018-02-11T03:46:30.306Z,973.27
2018-02-11T03:47:30.220Z,973.29
2018-02-11T03:48:30.137Z,973.24
2018-02-11T03:49:30.049Z,973.26
2018-02-11T03:50:29.963Z,973.22
2018-02-11T03:51:29.877Z,973.30
2018-02-11T03:52:29.791Z,973.26
2018-02-11T03:53:29.713Z,973.25
2018-02-11T03:54:29.617Z,973.25
2018-02-11T03:55:29.530Z,973.26
2018-02-11T03:56:29.445Z,973.25
2018-02-11T03:57:29.358Z,973.24
2018-02-11T03:58:29.275Z,973.23
2018-02-11T03:59:29.191Z,973.20
2018-02-11T04:00:29.102Z,973.20
2018-02-11T04:01:29.015Z,973.21
2018-02-11T04:02:28.949Z,973.18
2018-02-11T04:03:28.845Z,973.20
2018-02-11T04:04:28.756Z,973.22
2018-02-11T04:05:28.675Z,973.16
2018-02-11T04:06:28.585Z,973.18
2018-02-11T04:07:28.499Z,973.18
2018-02-11T04:08:28.412Z,973.15
2018-02-11T04:09:28.338Z,973.15
2018-02-11T04:10:28.247Z,973.13
2018-02-11T04:11:28.170Z,973.15
2018-02-11T04:12:28.071Z,973.16
2018-02-11T04:13:27.984Z,973.12
2018-02-11T04:14:27.897Z,973.11
2018-02-11T04:15:27.812Z,973.09
2018-02-11T04:16:27.729Z,973.11
2018-02-11T04:17:27.643Z,973.13
2018-02-11T04:18:27.554Z,973.11
2018-02-11T04:19:27.469Z,973.14
2018-02-11T04:20:27.384Z,973.12
2018-02-11T04:21:27.299Z,973.11
2018-02-11T04:22:27.211Z,973.11
2018-02-11T04:23:27.124Z,973.15
2018-02-11T04:24:27.054Z,973.15
2018-02-11T04:25:26.954Z,973.14
2018-02-11T04:26:26.867Z,973.06
2018-02-11T04:27:26.781Z,973.02
2018-02-11T04:28:26.703Z,973.07
2018-02-11T04:29:26.613Z,973.02
2018-02-11T04:30:26.524Z,973.04
2018-02-11T04:31:26.437Z,973.01
2018-02-11T04:32:26.350Z,973.00
2018-02-11T04:33:26.273Z,972.95
2018-02-11T04:34:26.191Z,972.97
2018-02-11T04:35:26.101Z,972.94
2018-02-11T04:36:26.009Z,972.93
2018-02-11T04:37:25.922Z,972.90
2018-02-11T04:38:25.837Z,972.93
2018-02-11T04:39:25.751Z,972.95
2018-02-11T04:40:25.663Z,972.91
2018-02-11T04:41:25.579Z,972.89
2018-02-11T04:42:25.495Z,972.89
2018-02-11T04:43:25.406Z,972.89
2018-02-11T04:44:25.319Z,972.89
2018-02-11T04:45:25.235Z,972.85
2018-02-11T04:46:25.147Z,972.86
2018-02-11T04:47:25.062Z,972.87
2018-02-11T04:48:24.975Z,972.83
2018-02-11T04:49:24.889Z,972.81
2018-02-11T04:50:24.804Z,972.81
2018-02-11T04:51:24.715Z,972.82
2018-02-11T04:52:24.631Z,972.80
2018-02-11T04:53:24.564Z,972.75
2018-02-11T04:54:24.459Z,972.75
2018-02-11T04:55:24.379Z,972.75
2018-02-11T04:56:24.288Z,972.75
2018-02-11T04:57:24.216Z,972.71
2018-02-11T04:58:24.115Z,972.69
2018-02-11T04:59:24.027Z,972.68
2018-02-11T05:00:23.941Z,972.67
2018-02-11T05:01:23.854Z,972.62
2018-02-11T05:02:23.771Z,972.65
2018-02-11T05:03:23.692Z,972.62
2018-02-11T05:04:23.601Z,972.62
2018-02-11T05:05:23.511Z,972.65
2018-02-11T05:06:23.426Z,972.62
2018-02-11T05:07:23.347Z,972.54
2018-02-11T05:08:23.252Z,972.57
2018-02-11T05:09:23.168Z,972.56
2018-02-11T05:10:23.080Z,972.53
2018-02-11T05:11:22.994Z,972.53
2018-02-11T05:12:22.907Z,972.54
2018-02-11T05:13:22.823Z,972.53
2018-02-11T05:14:22.736Z,972.54
2018-02-11T05:15:22.667Z,972.51
2018-02-11T05:16:22.572Z,972.47
2018-02-11T05:17:22.487Z,972.51
2018-02-11T05:18:22.414Z,972.48
2018-02-11T05:19:22.303Z,972.52
2018-02-11T05:20:22.218Z,972.53
2018-02-11T05:21:22.167Z,972.49
2018-02-11T05:22:22.045Z,972.48
2018-02-11T05:23:21.959Z,972.52
2018-02-11T05:24:21.873Z,972.51
2018-02-11T05:25:21.787Z,972.51
2018-02-11T05:26:21.699Z,972.49
2018-02-11T05:27:21.614Z,972.48
2018-02-11T05:28:21.528Z,972.51
2018-02-11T05:29:21.447Z,972.52
2018-02-11T05:30:21.355Z,972.50
2018-02-11T05:31:21.271Z,972.49
2018-02-11T05:32:21.186Z,972.48
2018-02-11T05:33:21.098Z,972.49
2018-02-11T05:34:21.012Z,972.41
2018-02-11T05:35:20.926Z,972.39
2018-02-11T05:36:20.839Z,972.43
2018-02-11T05:37:20.756Z,972.46
2018-02-11T05:38:20.677Z,972.46
2018-02-11T05:39:20.590Z,972.46
2018-02-11T05:40:20.496Z,972.41
2018-02-11T05:41:20.409Z,972.44
2018-02-11T05:42:20.322Z,972.43
2018-02-11T05:43:20.235Z,972.40
2018-02-11T05:44:20.150Z,972.41
2018-02-11T05:45:20.070Z,972.41
2018-02-11T05:46:19.977Z,972.41
2018-02-11T05:47:19.895Z,972.41
2018-02-11T05:48:19.807Z,972.37
2018-02-11T05:49:19.731Z,972.40
2018-02-11T05:50:19.634Z,972.37
2018-02-11T05:51:19.548Z,972.38
2018-02-11T05:52:19.461Z,972.33
2018-02-11T05:53:19.375Z,972.36
2018-02-11T05:54:19.290Z,972.32
2018-02-11T05:55:19.201Z,972.36
2018-02-11T05:56:19.120Z,972.35
2018-02-11T05:57:19.028Z,972.33
2018-02-11T05:58:18.945Z,972.27
2018-02-11T05:59:18.856Z,972.27
2018-02-11T06:00:18.782Z,972.25
2018-02-11T06:01:18.686Z,972.25
2018-02-11T06:02:18.596Z,972.24
2018-02-11T06:03:18.514Z,972.26
2018-02-11T06:04:18.429Z,972.21
2018-02-11T06:05:18.342Z,972.25
2018-02-11T06:06:18.258Z,972.19
2018-02-11T06:07:18.170Z,972.20
2018-02-11T06:08:18.111Z,972.22
2018-02-11T06:09:18.011Z,972.23
2018-02-11T06:10:17.930Z,972.23
2018-02-11T06:11:17.825Z,972.21
2018-02-11T06:12:17.739Z,972.18
2018-02-11T06:13:17.655Z,972.15
2018-02-11T06:14:17.570Z,972.13
2018-02-11T06:15:17.480Z,972.09
2018-02-11T06:16:17.393Z,972.13
2018-02-11T06:17:17.325Z,972.10
2018-02-11T06:18:17.225Z,972.11
2018-02-11T06:19:17.141Z,972.08
2018-02-11T06:20:17.051Z,972.05
2018-02-11T06:21:16.978Z,972.05
2018-02-11T06:22:16.881Z,972.05
2018-02-11T06:23:16.792Z,972.04
2018-02-11T06:24:16.718Z,972.04
2018-02-11T06:25:16.639Z,972.04
2018-02-11T06:26:16.557Z,972.03
2018-02-11T06:27:16.448Z,972.03
2018-02-11T06:28:16.363Z,972.01
2018-02-11T06:29:16.277Z,972.00
2018-02-11T06:30:16.190Z,972.00
2018-02-11T06:31:16.105Z,971.99
2018-02-11T06:32:16.016Z,971.98
2018-02-11T06:33:15.934Z,971.95
2018-02-11T06:34:15.845Z,971.98
2018-02-11T06:35:15.761Z,972.01
2018-02-11T06:36:15.673Z,972.00
2018-02-11T06:37:15.588Z,971.97
2018-02-11T06:38:15.503Z,972.00
2018-02-11T06:39:15.419Z,971.96
2018-02-11T06:40:15.329Z,971.94
2018-02-11T06:41:15.245Z,971.97
2018-02-11T06:42:15.174Z,971.93
2018-02-11T06:43:15.073Z,971.95
2018-02-11T06:44:14.987Z,971.96
2018-02-11T06:45:14.901Z,971.97
2018-02-11T06:46:14.813Z,972.00
2018-02-11T06:47:14.785Z,971.99
2018-02-11T06:48:14.638Z,971.97
2018-02-11T06:49:14.554Z,971.96
2018-02-11T06:50:14.467Z,971.94
2018-02-11T06:51:14.384Z,971.91
2018-02-11T06:52:14.322Z,971.95
2018-02-11T06:53:14.210Z,971.92
2018-02-11T06:54:14.132Z,971.90
2018-02-11T06:55:14.036Z,971.88
2018-02-11T06:56:13.954Z,971.88
2018-02-11T06:57:13.867Z,971.89
2018-02-11T06:58:13.779Z,971.82
2018-02-11T06:59:13.702Z,971.85
2018-02-11T07:00:13.611Z,971.87
2018-02-11T07:01:13.520Z,971.88
2018-02-11T07:02:13.442Z,971.89
2018-02-11T07:03:13.367Z,971.83
2018-02-11T07:04:13.286Z,971.84
2018-02-11T07:05:13.182Z,971.80
2018-02-11T07:06:13.090Z,971.81
2018-02-11T07:07:13.004Z,971.78
2018-02-11T07:08:12.918Z,971.80
2018-02-11T07:09:12.887Z,971.77
2018-02-11T07:10:12.759Z,971.79
2018-02-11T07:11:12.662Z,971.78
2018-02-11T07:12:12.574Z,971.76
2018-02-11T07:13:12.503Z,971.79
2018-02-11T07:14:12.410Z,971.76
2018-02-11T07:15:12.316Z,971.74
2018-02-11T07:16:12.229Z,971.71
2018-02-11T07:17:12.147Z,971.72
2018-02-11T07:18:12.068Z,971.70
2018-02-11T07:19:11.972Z,971.68
2018-02-11T07:20:12.706Z,971.64
2018-02-11T07:21:11.834Z,971.65
2018-02-11T07:22:11.717Z,971.62
2018-02-11T07:23:11.647Z,971.65
2018-02-11T07:24:11.560Z,971.63
2018-02-11T07:25:11.461Z,971.59
2018-02-11T07:26:11.366Z,971.59
2018-02-11T07:27:11.286Z,971.57
2018-02-11T07:28:11.194Z,971.60
2018-02-11T07:29:11.111Z,971.59
2018-02-11T07:30:11.028Z,971.61
2018-02-11T07:31:10.938Z,971.57
2018-02-11T07:32:10.859Z,971.57
2018-02-11T07:33:10.767Z,971.58
2018-02-11T07:34:10.681Z,971.56
2018-02-11T07:35:10.594Z,971.55
2018-02-11T07:36:10.509Z,971.53
2018-02-11T07:37:10.424Z,971.55
2018-02-11T07:38:10.337Z,971.49
2018-02-11T07:39:10.249Z,971.46
2018-02-11T07:40:10.213Z,971.46
2018-02-11T07:41:10.136Z,971.45
2018-02-11T07:42:10.043Z,971.43
2018-02-11T07:43:09.945Z,971.41
2018-02-11T07:44:09.840Z,971.37
2018-02-11T07:45:09.736Z,971.34
2018-02-11T07:46:09.669Z,971.34
2018-02-11T07:47:09.562Z,971.36
2018-02-11T07:48:09.484Z,971.31
2018-02-11T07:49:09.392Z,971.27
2018-02-11T07:50:09.308Z,971.23
2018-02-11T07:51:09.222Z,971.24
2018-02-11T07:52:09.135Z,971.23
2018-02-11T07:53:09.048Z,971.15
2018-02-11T07:54:08.980Z,971.19
2018-02-11T07:55:08.887Z,971.17
2018-02-11T07:56:08.794Z,971.19
2018-02-11T07:57:08.707Z,971.19
2018-02-11T07:58:08.663Z,971.16
2018-02-11T07:59:08.535Z,971.07
2018-02-11T08:00:08.450Z,971.10
2018-02-11T08:01:08.366Z,971.11
2018-02-11T08:02:08.283Z,971.10
2018-02-11T08:03:08.194Z,971.10
2018-02-11T08:04:08.111Z,971.11
2018-02-11T08:05:08.026Z,971.10
2018-02-11T08:06:07.951Z,971.11
2018-02-11T08:07:07.857Z,971.08
2018-02-11T08:08:07.768Z,971.08
2018-02-11T08:09:07.685Z,971.10
2018-02-11T08:10:07.597Z,971.07
2018-02-11T08:11:07.547Z,971.09
2018-02-11T08:12:07.430Z,971.09
2018-02-11T08:13:07.380Z,971.07
2018-02-11T08:14:07.267Z,971.11
2018-02-11T08:15:07.172Z,971.15
2018-02-11T08:16:07.088Z,971.16
2018-02-11T08:17:07.003Z,971.19
2018-02-11T08:18:06.917Z,971.17
2018-02-11T08:19:06.860Z,971.18
2018-02-11T08:20:06.750Z,971.17
2018-02-11T08:21:06.664Z,971.13
2018-02-11T08:22:06.579Z,971.15
2018-02-11T08:23:06.496Z,971.13
2018-02-11T08:24:06.412Z,971.12
2018-02-11T08:25:06.327Z,971.17
2018-02-11T08:26:06.252Z,971.12
2018-02-11T08:27:06.152Z,971.12
2018-02-11T08:28:06.070Z,971.08
2018-02-11T08:29:05.987Z,971.06
2018-02-11T08:30:05.898Z,971.07
2018-02-11T08:31:05.814Z,971.00
2018-02-11T08:32:05.730Z,971.00
2018-02-11T08:33:05.665Z,971.00
2018-02-11T08:34:05.568Z,971.01
2018-02-11T08:35:05.518Z,971.03
2018-02-11T08:36:05.390Z,971.01
2018-02-11T08:37:05.307Z,971.01
2018-02-11T08:38:05.221Z,970.98
2018-02-11T08:39:05.134Z,971.01
2018-02-11T08:40:05.050Z,970.98
2018-02-11T08:41:04.965Z,970.94
2018-02-11T08:42:04.880Z,970.88
2018-02-11T08:43:04.813Z,970.91
2018-02-11T08:44:04.743Z,970.87
2018-02-11T08:45:04.626Z,970.84
2018-02-11T08:46:04.542Z,970.88
2018-02-11T08:47:04.465Z,970.85
2018-02-11T08:48:04.372Z,970.79
2018-02-11T08:49:04.287Z,970.81
2018-02-11T08:50:04.202Z,970.79
2018-02-11T08:51:04.119Z,970.75
2018-02-11T08:52:04.052Z,970.77
2018-02-11T08:53:03.950Z,970.75
2018-02-11T08:54:03.865Z,970.74
2018-02-11T08:55:03.779Z,970.72
2018-02-11T08:56:03.699Z,970.68
2018-02-11T08:57:03.608Z,970.64
2018-02-11T08:58:03.524Z,970.62
2018-02-11T08:59:03.438Z,970.60
2018-02-11T09:00:03.353Z,970.61
2018-02-11T09:01:03.268Z,970.58
2018-02-11T09:02:03.205Z,970.54
2018-02-11T09:03:03.100Z,970.53
2018-02-11T09:04:03.018Z,970.51
2018-02-11T09:05:02.928Z,970.45
2018-02-11T09:06:02.842Z,970.46
2018-02-11T09:07:02.763Z,970.47
2018-02-11T09:08:02.674Z,970.41
2018-02-11T09:09:02.590Z,970.42
2018-02-11T09:10:02.501Z,970.47
2018-02-11T09:11:02.422Z,970.41
2018-02-11T09:12:02.332Z,970.38
2018-02-11T09:13:02.246Z,970.39
2018-02-11T09:14:02.163Z,970.40
2018-02-11T09:15:02.078Z,970.44
2018-02-11T09:16:01.995Z,970.43
2018-02-11T09:17:01.927Z,970.42
2018-02-11T09:18:01.824Z,970.37
2018-02-11T09:19:01.740Z,970.36
2018-02-11T09:20:01.656Z,970.39
2018-02-11T09:21:01.592Z,970.31
2018-02-11T09:22:01.486Z,970.28
2018-02-11T09:23:01.400Z,970.30
2018-02-11T09:24:01.317Z,970.26
2018-02-11T09:25:01.233Z,970.25
2018-02-11T09:26:01.148Z,970.30
2018-02-11T09:27:01.062Z,970.22
2018-02-11T09:28:00.984Z,970.23
2018-02-11T09:29:00.935Z,970.19
2018-02-11T09:30:00.828Z,970.19
2018-02-11T09:31:00.742Z,970.16
2018-02-11T09:32:00.640Z,970.20
2018-02-11T09:33:00.554Z,970.20
2018-02-11T09:34:00.471Z,970.12
2018-02-11T09:35:00.386Z,970.12
2018-02-11T09:36:00.301Z,970.19
2018-02-11T09:37:00.220Z,970.13
2018-02-11T09:38:00.133Z,970.14
2018-02-11T09:39:00.059Z,970.15
2018-02-11T09:39:59.965Z,970.13
2018-02-11T09:40:59.893Z,970.17
2018-02-11T09:41:59.799Z,970.05
2018-02-11T09:42:59.794Z,970.14
2018-02-11T09:43:59.626Z,970.18
2018-02-11T09:44:59.545Z,970.11
2018-02-11T09:45:59.461Z,970.09
2018-02-11T09:46:59.373Z,970.04
2018-02-11T09:47:59.291Z,970.01
2018-02-11T09:48:59.206Z,970.04
2018-02-11T09:49:59.122Z,969.94
2018-02-11T09:50:59.036Z,970.00
2018-02-11T09:51:58.952Z,970.04
2018-02-11T09:52:58.871Z,969.94
2018-02-11T09:53:58.786Z,970.02
2018-02-11T09:54:58.713Z,970.07
2018-02-11T09:55:58.614Z,970.07
2018-02-11T09:56:58.532Z,970.03
2018-02-11T09:57:58.446Z,969.99
2018-02-11T09:58:58.363Z,969.99
2018-02-11T09:59:58.280Z,970.02
2018-02-11T10:00:58.194Z,969.98
2018-02-11T10:01:58.136Z,969.99
2018-02-11T10:02:58.024Z,970.01
2018-02-11T10:03:57.941Z,969.97
2018-02-11T10:04:57.857Z,969.96
2018-02-11T10:05:57.772Z,969.89
2018-02-11T10:06:57.728Z,969.93
2018-02-11T10:07:57.606Z,969.87
2018-02-11T10:08:57.519Z,969.80
2018-02-11T10:09:57.434Z,969.84
2018-02-11T10:10:57.350Z,969.83
2018-02-11T10:11:57.265Z,969.79
2018-02-11T10:12:57.184Z,969.80
2018-02-11T10:13:57.094Z,969.77
2018-02-11T10:14:57.041Z,969.76
2018-02-11T10:15:57.890Z,969.82
2018-02-11T10:16:56.848Z,969.78
2018-02-11T10:17:56.763Z,969.79
2018-02-11T10:18:56.729Z,969.73
2018-02-11T10:19:56.597Z,969.74
2018-02-11T10:20:56.511Z,969.75
2018-02-11T10:21:56.428Z,969.72
2018-02-11T10:22:56.340Z,969.73
2018-02-11T10:23:56.272Z,969.68
2018-02-11T10:24:56.210Z,969.75
2018-02-11T10:25:56.087Z,969.71
2018-02-11T10:26:56.004Z,969.68
2018-02-11T10:27:55.918Z,969.69
2018-02-11T10:28:55.835Z,969.67
2018-02-11T10:29:55.749Z,969.64
2018-02-11T10:30:55.666Z,969.61
2018-02-11T10:31:55.601Z,969.58
2018-02-11T10:32:55.498Z,969.58
2018-02-11T10:33:55.412Z,969.61
2018-02-11T10:34:55.328Z,969.58
2018-02-11T10:35:55.262Z,969.56
2018-02-11T10:36:55.160Z,969.56
2018-02-11T10:37:55.078Z,969.54
2018-02-11T10:38:54.991Z,969.55
2018-02-11T10:39:54.908Z,969.50
2018-02-11T10:40:54.823Z,969.52
2018-02-11T10:41:54.761Z,969.52
2018-02-11T10:42:54.661Z,969.48
2018-02-11T10:43:54.568Z,969.47
2018-02-11T10:44:54.488Z,969.43
2018-02-11T10:45:54.403Z,969.39
2018-02-11T10:46:54.322Z,969.41
2018-02-11T10:47:54.237Z,969.41
2018-02-11T10:48:54.151Z,969.37
2018-02-11T10:49:54.073Z,969.39
2018-02-11T10:50:53.977Z,969.43
2018-02-11T10:51:53.902Z,969.35
2018-02-11T10:52:53.814Z,969.34
2018-02-11T10:53:53.800Z,969.36
2018-02-11T10:54:53.638Z,969.36
2018-02-11T10:55:53.557Z,969.31
2018-02-11T10:56:53.472Z,969.30
2018-02-11T10:57:53.411Z,969.28
2018-02-11T10:58:53.330Z,969.39
2018-02-11T10:59:53.222Z,969.31
2018-02-11T11:00:53.198Z,969.27
2018-02-11T11:01:53.101Z,969.30
2018-02-11T11:02:52.966Z,969.20
2018-02-11T11:03:52.886Z,969.19
2018-02-11T11:04:52.861Z,969.21
2018-02-11T11:05:52.714Z,969.24
2018-02-11T11:06:52.740Z,969.24
2018-02-11T11:07:52.548Z,969.21
2018-02-11T11:08:52.462Z,969.15
2018-02-11T11:09:52.386Z,969.24
2018-02-11T11:10:52.297Z,969.22
2018-02-11T11:11:52.216Z,969.19
2018-02-11T11:12:52.143Z,969.23
2018-02-11T11:13:52.043Z,969.19
2018-02-11T11:14:51.959Z,969.12
2018-02-11T11:15:51.876Z,969.16
2018-02-11T11:16:51.794Z,969.14
2018-02-11T11:17:51.716Z,969.15
2018-02-11T11:18:51.623Z,969.16
2018-02-11T11:19:51.541Z,969.16
2018-02-11T11:20:51.454Z,969.14
2018-02-11T11:21:51.371Z,969.11
2018-02-11T11:22:51.287Z,969.16
2018-02-11T11:23:51.203Z,969.11
2018-02-11T11:24:51.119Z,969.17
2018-02-11T11:25:51.035Z,969.03
2018-02-11T11:26:50.962Z,969.05
2018-02-11T11:27:50.881Z,969.12
2018-02-11T11:28:50.833Z,969.06
2018-02-11T11:29:50.698Z,969.10
2018-02-11T11:30:50.614Z,969.04
2018-02-11T11:31:50.529Z,969.08
2018-02-11T11:32:50.452Z,969.09
2018-02-11T11:33:50.359Z,969.01
2018-02-11T11:34:50.302Z,969.07
2018-02-11T11:35:50.191Z,969.05
2018-02-11T11:36:50.108Z,969.00
2018-02-11T11:37:50.022Z,969.00
2018-02-11T11:38:49.938Z,969.00
2018-02-11T11:39:49.858Z,969.02
2018-02-11T11:40:49.771Z,968.98
2018-02-11T11:41:49.683Z,968.95
2018-02-11T11:42:49.597Z,968.97
2018-02-11T11:43:49.515Z,969.00
2018-02-11T11:44:49.442Z,969.01
2018-02-11T11:45:49.344Z,969.00
2018-02-11T11:46:49.258Z,968.93
2018-02-11T11:47:49.174Z,968.90
2018-02-11T11:48:49.091Z,968.88
2018-02-11T11:49:49.004Z,968.94
2018-02-11T11:50:48.921Z,968.86
2018-02-11T11:51:48.837Z,968.92
2018-02-11T11:52:48.750Z,968.83
2018-02-11T11:53:48.664Z,968.85
2018-02-11T11:54:48.580Z,968.82
2018-02-11T11:55:48.499Z,968.86
2018-02-11T11:56:48.421Z,968.82
2018-02-11T11:57:48.326Z,968.80
2018-02-11T11:58:48.242Z,968.87
2018-02-11T11:59:48.159Z,968.79
2018-02-11T12:00:48.078Z,968.82
2018-02-11T12:01:47.986Z,968.78
2018-02-11T12:02:47.926Z,968.71
2018-02-11T12:03:47.829Z,968.65
2018-02-11T12:04:47.732Z,968.61
2018-02-11T12:05:47.646Z,968.56
2018-02-11T12:06:47.562Z,968.55
2018-02-11T12:07:47.478Z,968.55
2018-02-11T12:08:47.413Z,968.53
2018-02-11T12:09:47.316Z,968.48
2018-02-11T12:10:47.223Z,968.42
2018-02-11T12:11:47.140Z,968.44
2018-02-11T12:12:47.069Z,968.41
2018-02-11T12:13:46.970Z,968.45
2018-02-11T12:14:46.886Z,968.44
2018-02-11T12:15:46.802Z,968.40
2018-02-11T12:16:46.723Z,968.39
2018-02-11T12:17:46.633Z,968.38
2018-02-11T12:18:46.551Z,968.32
2018-02-11T12:19:46.466Z,968.35
2018-02-11T12:20:46.383Z,968.35
2018-02-11T12:21:46.318Z,968.30
2018-02-11T12:22:46.225Z,968.28
2018-02-11T12:23:46.134Z,968.30
2018-02-11T12:24:46.047Z,968.24
2018-02-11T12:25:45.962Z,968.25
2018-02-11T12:26:45.879Z,968.20
2018-02-11T12:27:45.797Z,968.23